Time;durP1;ratioP1;P1;durP2;ratioP2;P2;SDS_P1;SDS_P2;PMS_P1;PMS_P2;Temp;Humidity;BMP_temperature;BMP_pressure;BME280_temperature;BME280_humidity;BME280_pressure;Samples;Min_cycle;Max_cycle;Signal;HPM_P1;HPM_P2
2023/12/11 00:02:47;;;;;;;;;;;;;;;;;;137458;1272;23014;-83
2023/12/11 00:05:50;;;;;;;;;;;;;;;;;;137173;1272;22503;-83
2023/12/11 00:08:52;;;;;;;;;;;;;;;;;;137224;1272;22530;-82
2023/12/11 00:11:55;;;;;;;;;;;;;;;;;;137667;1272;22492;-83
2023/12/11 00:14:57;;;;;;;;;;;;;;;;;;137195;1272;22543;-82
2023/12/11 00:18:00;;;;;;;;;;;;;;;;;;137333;1272;22496;-81
2023/12/11 00:21:02;;;;;;;;;;;;;;;;;;137576;1272;22854;-83
2023/12/11 00:24:06;;;;;;;;;;;;;;;;;;137228;1272;22533;-82
2023/12/11 00:27:08;;;;;;;;;;;;;;;;;;137203;1272;22493;-83
2023/12/11 00:30:11;;;;;;;;;;;;;;;;;;137610;1272;22608;-83
2023/12/11 00:33:13;;;;;;;;;;;;;;;;;;137457;1272;22490;-81
2023/12/11 00:36:18;;;;;;;;;;;;;;;;;;137089;1272;22578;-82
2023/12/11 00:39:21;;;;;;;;;;;;;;;;;;137227;1272;22522;-81
2023/12/11 00:42:23;;;;;;;;;;;;;;;;;;137511;1272;22505;-83
2023/12/11 00:45:26;;;;;;;;;;;;;;;;;;137305;1270;22512;-83
2023/12/11 00:48:28;;;;;;;;;;;;;;;;;;137292;1272;22558;-81
2023/12/11 00:51:31;;;;;;;;;;;;;;;;;;137350;1272;23042;-83
2023/12/11 00:54:33;;;;;;;;;;;;;;;;;;137267;1272;22511;-82
2023/12/11 00:57:36;;;;;;;;;;;;;;;;;;137307;1272;22986;-82
2023/12/11 01:00:38;;;;;;;;;;;;;;;;;;137535;1272;25492;-82
2023/12/11 01:03:41;;;;;;;;;;;;;;;;;;137426;1272;22499;-82
2023/12/11 01:06:43;;;;;;;;;;;;;;;;;;137321;1272;22669;-82
2023/12/11 01:09:46;;;;;;;;;;;;;;;;;;137354;1272;22543;-84
2023/12/11 01:12:48;;;;;;;;;;;;;;;;;;137572;1272;22971;-85
2023/12/11 01:15:51;;;;;;;;;;;;;;;;;;137285;1272;22885;-85
2023/12/11 01:18:53;;;;;;;;;;;;;;;;;;137240;1272;22521;-85
2023/12/11 01:21:56;;;;;;;;;;;;;;;;;;137562;1272;23045;-84
2023/12/11 01:25:02;;;;;;;;;;;;;;;;;;136983;1272;22568;-85
2023/12/11 01:28:04;;;;;;;;;;;;;;;;;;137325;1272;22504;-83
2023/12/11 01:31:06;;;;;;;;;;;;;;;;;;137498;1272;22536;-82
2023/12/11 01:34:09;;;;;;;;;;;;;;;;;;136798;1272;22534;-83
2023/12/11 01:37:12;;;;;;;;;;;;;;;;;;136982;1272;22550;-82
2023/12/11 01:40:14;;;;;;;;;;;;;;;;;;136662;1272;22549;-84
2023/12/11 01:43:17;;;;;;;;;;;;;;;;;;136629;1272;22521;-84
2023/12/11 01:46:19;;;;;;;;;;;;;;;;;;136416;1272;22544;-83
2023/12/11 01:49:22;;;;;;;;;;;;;;;;;;136508;1272;22592;-84
2023/12/11 01:52:25;;;;;;;;;;;;;;;;;;136860;1272;23031;-83
2023/12/11 01:55:28;;;;;;;;;;;;;;;;;;136623;1272;22573;-82
2023/12/11 01:58:30;;;;;;;;;;;;;;;;;;137327;1272;22582;-83
2023/12/11 02:01:33;;;;;;;;;;;;;;;;;;136937;1272;22510;-85
2023/12/11 02:04:35;;;;;;;;;;;;;;;;;;137000;1272;22579;-84
2023/12/11 02:07:39;;;;;;;;;;;;;;;;;;137132;1272;22528;-82
2023/12/11 02:10:41;;;;;;;;;;;;;;;;;;136608;1272;22515;-82
2023/12/11 02:13:44;;;;;;;;;;;;;;;;;;136915;1272;22525;-83
2023/12/11 02:16:46;;;;;;;;;;;;;;;;;;136466;1272;22460;-85
2023/12/11 02:19:49;;;;;;;;;;;;;;;;;;136562;1272;22564;-82
2023/12/11 02:22:51;;;;;;;;;;;;;;;;;;136669;1272;22513;-84
2023/12/11 02:25:59;;;;;;;;;;;;;;;;;;136540;1272;22533;-85
2023/12/11 02:29:02;;;;;;;;;;;;;;;;;;137063;1272;22647;-84
2023/12/11 02:32:05;;;;;;;;;;;;;;;;;;136549;1272;22572;-84
2023/12/11 02:35:07;;;;;;;;;;;;;;;;;;136416;1272;24252;-84
2023/12/11 02:38:10;;;;;;;;;;;;;;;;;;136425;1272;22527;-82
2023/12/11 02:41:14;;;;;;;;;;;;;;;;;;137031;1272;22516;-83
2023/12/11 02:44:17;;;;;;;;;;;;;;;;;;136583;1272;22559;-83
2023/12/11 02:47:20;;;;;;;;;;;;;;;;;;136282;1272;22562;-85
2023/12/11 02:50:22;;;;;;;;;;;;;;;;;;136433;1272;22540;-86
2023/12/11 02:53:28;;;;;;;;;;;;;;;;;;136386;1272;22497;-83
2023/12/11 02:56:31;;;;;;;;;;;;;;;;;;136682;1272;22451;-87
2023/12/11 02:59:33;;;;;;;;;;;;;;;;;;136778;1272;22546;-82
2023/12/11 03:02:36;;;;;;;;;;;;;;;;;;136838;1269;22594;-87
2023/12/11 03:05:38;;;;;;;;;;;;;;;;;;137067;1272;25076;-83
2023/12/11 03:08:41;;;;;;;;;;;;;;;;;;137446;1272;22552;-83
2023/12/11 03:11:43;;;;;;;;;;;;;;;;;;137388;1272;22558;-82
2023/12/11 03:14:46;;;;;;;;;;;;;;;;;;137396;1272;22541;-82
2023/12/11 03:17:48;;;;;;;;;;;;;;;;;;137589;1272;22500;-82
2023/12/11 03:20:53;;;;;;;;;;;;;;;;;;137313;1272;22570;-84
2023/12/11 03:23:55;;;;;;;;;;;;;;;;;;137296;1272;22895;-81
2023/12/11 03:27:00;;;;;;;;;;;;;;;;;;137531;1272;22472;-83
2023/12/11 03:30:02;;;;;;;;;;;;;;;;;;137318;1272;22538;-86
2023/12/11 03:33:05;;;;;;;;;;;;;;;;;;137156;1272;23127;-85
2023/12/11 03:36:07;;;;;;;;;;;;;;;;;;137628;1272;22507;-84
2023/12/11 03:39:10;;;;;;;;;;;;;;;;;;137023;1272;22982;-84
2023/12/11 03:42:14;;;;;;;;;;;;;;;;;;137058;1272;23010;-85
2023/12/11 03:45:17;;;;;;;;;;;;;;;;;;136692;1272;22583;-83
2023/12/11 03:48:19;;;;;;;;;;;;;;;;;;136859;1272;22879;-84
2023/12/11 03:51:22;;;;;;;;;;;;;;;;;;136789;1272;22526;-85
2023/12/11 03:54:24;;;;;;;;;;;;;;;;;;137500;1272;22500;-84
2023/12/11 03:57:27;;;;;;;;;;;;;;;;;;137002;1272;23103;-84
2023/12/11 04:00:30;;;;;;;;;;;;;;;;;;137246;1272;22511;-82
2023/12/11 04:03:32;;;;;;;;;;;;;;;;;;137013;1272;22560;-84
2023/12/11 04:06:35;;;;;;;;;;;;;;;;;;137055;1272;22530;-83
2023/12/11 04:09:37;;;;;;;;;;;;;;;;;;136995;1272;23303;-84
2023/12/11 04:12:40;;;;;;;;;;;;;;;;;;136890;1272;22468;-86
2023/12/11 04:15:45;;;;;;;;;;;;;;;;;;137252;1272;22523;-84
2023/12/11 04:18:53;;;;;;;;;;;;;;;;;;137357;1272;22547;-82
2023/12/11 04:21:56;;;;;;;;;;;;;;;;;;137071;1272;24896;-84
2023/12/11 04:24:59;;;;;;;;;;;;;;;;;;136837;1272;25413;-83
2023/12/11 04:28:02;;;;;;;;;;;;;;;;;;137012;1272;22563;-83
2023/12/11 04:31:04;;;;;;;;;;;;;;;;;;137253;1272;22505;-83
2023/12/11 04:34:07;;;;;;;;;;;;;;;;;;137324;1272;22563;-82
2023/12/11 04:37:09;;;;;;;;;;;;;;;;;;137367;1272;22533;-84
2023/12/11 04:40:12;;;;;;;;;;;;;;;;;;136828;1263;24494;-84
2023/12/11 04:43:14;;;;;;;;;;;;;;;;;;137232;1272;22570;-84
2023/12/11 04:46:18;;;;;;;;;;;;;;;;;;137138;1272;23012;-82
2023/12/11 04:49:21;;;;;;;;;;;;;;;;;;137529;1272;22556;-83
2023/12/11 04:52:24;;;;;;;;;;;;;;;;;;137228;1272;23392;-83
2023/12/11 04:55:27;;;;;;;;;;;;;;;;;;137630;1272;22974;-82
2023/12/11 04:58:29;;;;;;;;;;;;;;;;;;137496;1272;22976;-82
2023/12/11 05:01:32;;;;;;;;;;;;;;;;;;137619;1272;23190;-84
2023/12/11 05:04:34;;;;;;;;;;;;;;;;;;137652;1266;22372;-85
2023/12/11 05:07:42;;;;;;;;;;;;;;;;;;137650;1272;22890;-83
2023/12/11 05:10:45;;;;;;;;;;;;;;;;;;137315;1272;22533;-83
2023/12/11 05:13:48;;;;;;;;;;;;;;;;;;137313;1272;22525;-83
2023/12/11 05:16:56;;;;;;;;;;;;;;;;;;137388;1272;22999;-83
2023/12/11 05:19:59;;;;;;;;;;;;;;;;;;136917;1272;22983;-85
2023/12/11 05:23:01;;;;;;;;;;;;;;;;;;137309;1272;22660;-82
2023/12/11 05:26:04;;;;;;;;;;;;;;;;;;137381;1269;22520;-82
2023/12/11 05:29:11;;;;;;;;;;;;;;;;;;137649;1272;22518;-80
2023/12/11 05:32:14;;;;;;;;;;;;;;;;;;137567;1272;22514;-82
2023/12/11 05:35:17;;;;;;;;;;;;;;;;;;137651;1273;22394;-82
2023/12/11 05:38:19;;;;;;;;;;;;;;;;;;137525;1272;22493;-83
2023/12/11 05:41:22;;;;;;;;;;;;;;;;;;137494;1272;22510;-84
2023/12/11 05:44:24;;;;;;;;;;;;;;;;;;137664;1272;22834;-84
2023/12/11 05:47:27;;;;;;;;;;;;;;;;;;137668;1272;22546;-81
2023/12/11 05:50:31;;;;;;;;;;;;;;;;;;137574;1272;22730;-83
2023/12/11 05:53:34;;;;;;;;;;;;;;;;;;137644;1272;22338;-83
2023/12/11 05:56:37;;;;;;;;;;;;;;;;;;137580;1272;22899;-80
2023/12/11 05:59:40;;;;;;;;;;;;;;;;;;137587;1272;22267;-81
2023/12/11 06:02:56;;;;;;;;;;;;;;;;;;137594;1272;22334;-83
2023/12/11 06:05:58;;;;;;;;;;;;;;;;;;137569;1272;22368;-82
2023/12/11 06:09:01;;;;;;;;;;;;;;;;;;137583;1272;22262;-82
2023/12/11 06:12:03;;;;;;;;;;;;;;;;;;137591;1272;22312;-83
2023/12/11 06:15:06;;;;;;;;;;;;;;;;;;137546;1272;22433;-81
2023/12/11 06:18:09;;;;;;;;;;;;;;;;;;137597;1272;22349;-82
2023/12/11 06:21:11;;;;;;;;;;;;;;;;;;137575;1272;22283;-82
2023/12/11 06:24:14;;;;;;;;;;;;;;;;;;137579;1272;22890;-84
2023/12/11 06:27:16;;;;;;;;;;;;;;;;;;137585;1272;22775;-85
2023/12/11 06:30:19;;;;;;;;;;;;;;;;;;137627;1272;22250;-84
2023/12/11 06:33:21;;;;;;;;;;;;;;;;;;137582;1272;22426;-80
2023/12/11 06:36:25;;;;;;;;;;;;;;;;;;137582;1272;22394;-85
2023/12/11 06:39:28;;;;;;;;;;;;;;;;;;137585;1272;22319;-81
2023/12/11 06:42:34;;;;;;;;;;;;;;;;;;137640;1272;22326;-84
2023/12/11 06:45:37;;;;;;;;;;;;;;;;;;137652;1269;22242;-83
2023/12/11 06:48:39;;;;;;;;;;;;;;;;;;137659;1272;22285;-84
2023/12/11 06:51:42;;;;;;;;;;;;;;;;;;137650;1272;22331;-81
2023/12/11 06:54:44;;;;;;;;;;;;;;;;;;137432;1272;22750;-79
2023/12/11 06:57:47;;;;;;;;;;;;;;;;;;137597;1272;22405;-81
2023/12/11 07:00:50;;;;;;;;;;;;;;;;;;137621;1272;22266;-79
2023/12/11 07:03:53;;;;;;;;;;;;;;;;;;137591;1272;22460;-87
2023/12/11 07:06:56;;;;;;;;;;;;;;;;;;137479;1272;22491;-83
2023/12/11 07:10:04;;;;;;;;;;;;;;;;;;137509;1272;22322;-84
2023/12/11 07:13:06;;;;;;;;;;;;;;;;;;137559;1272;22670;-82
2023/12/11 07:16:09;;;;;;;;;;;;;;;;;;137590;1272;22488;-80
2023/12/11 07:19:11;;;;;;;;;;;;;;;;;;137636;1272;22289;-84
2023/12/11 07:22:14;;;;;;;;;;;;;;;;;;137627;1272;22358;-85
2023/12/11 07:25:16;;;;;;;;;;;;;;;;;;137578;1272;22557;-84
2023/12/11 07:28:19;;;;;;;;;;;;;;;;;;137661;1272;22490;-85
2023/12/11 07:31:21;;;;;;;;;;;;;;;;;;137458;1272;22540;-84
2023/12/11 07:34:24;;;;;;;;;;;;;;;;;;137632;1272;22547;-87
2023/12/11 07:37:26;;;;;;;;;;;;;;;;;;137551;1272;22509;-84
2023/12/11 07:40:29;;;;;;;;;;;;;;;;;;137645;1272;22712;-82
2023/12/11 07:43:33;;;;;;;;;;;;;;;;;;137653;1272;23117;-83
2023/12/11 07:46:35;;;;;;;;;;;;;;;;;;137555;1272;22512;-83
2023/12/11 07:49:38;;;;;;;;;;;;;;;;;;137611;1272;22375;-82
2023/12/11 07:56:15;;;;;;;;;;;;;;;;;;;;;
2023/12/11 07:59:23;;;;;;;;;;;;;;;;;;137590;1272;22287;-80
2023/12/11 08:02:26;;;;;;;;;;;;;;;;;;137623;1272;22270;-80
2023/12/11 08:05:29;;;;;;;;;;;;;;;;;;137666;1272;22528;-82
2023/12/11 08:08:31;;;;;;;;;;;;;;;;;;137537;1272;22553;-82
2023/12/11 08:11:34;;;;;;;;;;;;;;;;;;137627;1272;22507;-83
2023/12/11 08:14:38;;;;;;;;;;;;;;;;;;137696;1272;22269;-83
2023/12/11 08:17:41;;;;;;;;;;;;;;;;;;137442;1272;22507;-81
2023/12/11 08:20:44;;;;;;;;;;;;;;;;;;137711;1263;22242;-82
2023/12/11 08:23:47;;;;;;;;;;;;;;;;;;137573;1266;22440;-82
2023/12/11 08:26:50;;;;;;;;;;;;;;;;;;137611;1272;22280;-81
2023/12/11 08:29:52;;;;;;;;;;;;;;;;;;137643;1272;22263;-82
2023/12/11 08:32:55;;;;;;;;;;;;;;;;;;137551;1272;22507;-81
2023/12/11 08:35:58;;;;;;;;;;;;;;;;;;137552;1270;22441;-84
2023/12/11 08:39:04;;;;;;;;;;;;;;;;;;137495;1272;22402;-83
2023/12/11 08:42:07;;;;;;;;;;;;;;;;;;137540;1272;22337;-83
2023/12/11 08:45:10;;;;;;;;;;;;;;;;;;137546;1272;22286;-82
2023/12/11 08:48:13;;;;;;;;;;;;;;;;;;137599;1272;22362;-84
2023/12/11 08:51:16;;;;;;;;;;;;;;;;;;137451;1272;22526;-82
2023/12/11 08:54:18;;;;;;;;;;;;;;;;;;137682;1272;22278;-82
2023/12/11 08:57:21;;;;;;;;;;;;;;;;;;137511;1272;22351;-82
2023/12/11 09:00:25;;;;;;;;;;;;;;;;;;137599;1272;22325;-82
2023/12/11 09:03:28;;;;;;;;;;;;;;;;;;137603;1272;22404;-81
2023/12/11 09:06:30;;;;;;;;;;;;;;;;;;137552;1272;22917;-80
2023/12/11 09:09:33;;;;;;;;;;;;;;;;;;137575;1272;22351;-82
2023/12/11 09:12:35;;;;;;;;;;;;;;;;;;137615;1272;22299;-81
2023/12/11 09:15:38;;;;;;;;;;;;;;;;;;137550;1272;22312;-82
2023/12/11 09:18:40;;;;;;;;;;;;;;;;;;137568;1270;22322;-81
2023/12/11 09:21:43;;;;;;;;;;;;;;;;;;137437;1272;22375;-80
2023/12/11 09:24:46;;;;;;;;;;;;;;;;;;137579;1272;22419;-84
2023/12/11 09:27:48;;;;;;;;;;;;;;;;;;137595;1272;22372;-81
2023/12/11 09:30:51;;;;;;;;;;;;;;;;;;137671;1272;22752;-81
2023/12/11 09:33:53;;;;;;;;;;;;;;;;;;137595;1272;23129;-82
2023/12/11 09:36:56;;;;;;;;;;;;;;;;;;137619;1263;22255;-81
2023/12/11 09:39:58;;;;;;;;;;;;;;;;;;137636;1263;22330;-82
2023/12/11 09:43:01;;;;;;;;;;;;;;;;;;137600;1264;22258;-83
2023/12/11 09:46:03;;;;;;;;;;;;;;;;;;137585;1272;22358;-81
2023/12/11 09:49:08;;;;;;;;;;;;;;;;;;137546;1272;22502;-82
2023/12/11 09:52:13;;;;;;;;;;;;;;;;;;137612;1272;22325;-83
2023/12/11 09:55:16;;;;;;;;;;;;;;;;;;137636;1272;22353;-82
2023/12/11 09:58:19;;;;;;;;;;;;;;;;;;137672;1272;22366;-82
2023/12/11 10:01:21;;;;;;;;;;;;;;;;;;137618;1272;22309;-83
2023/12/11 10:04:23;;;;;;;;;;;;;;;;;;137614;1272;22390;-82
2023/12/11 10:07:29;;;;;;;;;;;;;;;;;;137647;1272;22404;-80
2023/12/11 10:10:33;;;;;;;;;;;;;;;;;;137600;1272;22479;-83
2023/12/11 10:13:38;;;;;;;;;;;;;;;;;;137642;1272;22346;-83
2023/12/11 10:16:42;;;;;;;;;;;;;;;;;;137678;1272;23067;-84
2023/12/11 10:19:46;;;;;;;;;;;;;;;;;;137654;1272;22274;-82
2023/12/11 10:22:48;;;;;;;;;;;;;;;;;;137602;1272;22339;-84
2023/12/11 10:25:51;;;;;;;;;;;;;;;;;;137524;1272;22820;-81
2023/12/11 10:28:54;;;;;;;;;;;;;;;;;;137400;1272;22375;-81
2023/12/11 10:31:57;;;;;;;;;;;;;;;;;;137535;1272;22793;-81
2023/12/11 10:34:59;;;;;;;;;;;;;;;;;;137567;1272;22432;-81
2023/12/11 10:38:02;;;;;;;;;;;;;;;;;;137496;1272;119932;-81
2023/12/11 10:41:04;;;;;;;;;;;;;;;;;;137570;1272;22311;-82
2023/12/11 10:44:07;;;;;;;;;;;;;;;;;;137612;1272;22329;-81
2023/12/11 10:47:09;;;;;;;;;;;;;;;;;;137533;1272;22329;-79
2023/12/11 10:50:12;;;;;;;;;;;;;;;;;;137567;1272;22297;-82
2023/12/11 10:53:14;;;;;;;;;;;;;;;;;;137550;1272;22308;-83
2023/12/11 10:56:17;;;;;;;;;;;;;;;;;;137515;1272;22308;-82
2023/12/11 10:59:19;;;;;;;;;;;;;;;;;;137563;1272;22405;-83
2023/12/11 11:02:22;;;;;;;;;;;;;;;;;;137613;1272;22290;-82
2023/12/11 11:05:24;;;;;;;;;;;;;;;;;;137597;1272;22987;-84
2023/12/11 11:08:27;;;;;;;;;;;;;;;;;;137605;1272;22268;-82
2023/12/11 11:11:32;;;;;;;;;;;;;;;;;;137493;1272;22365;-82
2023/12/11 11:14:35;;;;;;;;;;;;;;;;;;137602;1272;22294;-82
2023/12/11 11:17:37;;;;;;;;;;;;;;;;;;137608;1272;22297;-82
2023/12/11 11:20:40;;;;;;;;;;;;;;;;;;137548;1272;22278;-83
2023/12/11 11:23:45;;;;;;;;;;;;;;;;;;137625;1272;22918;-85
2023/12/11 11:26:48;;;;;;;;;;;;;;;;;;137573;1272;22775;-81
2023/12/11 11:29:51;;;;;;;;;;;;;;;;;;137558;1272;22773;-82
2023/12/11 11:32:54;;;;;;;;;;;;;;;;;;137560;1272;22322;-83
2023/12/11 11:35:59;;;;;;;;;;;;;;;;;;137571;1272;22390;-81
2023/12/11 11:39:02;;;;;;;;;;;;;;;;;;137528;1272;22893;-87
2023/12/11 11:42:06;;;;;;;;;;;;;;;;;;137559;1272;22402;-83
2023/12/11 11:45:09;;;;;;;;;;;;;;;;;;137601;1272;22926;-83
2023/12/11 11:48:12;;;;;;;;;;;;;;;;;;137592;1272;22298;-83
2023/12/11 11:51:17;;;;;;;;;;;;;;;;;;137614;1272;22359;-83
2023/12/11 11:54:19;;;;;;;;;;;;;;;;;;137574;1272;22330;-82
2023/12/11 11:57:22;;;;;;;;;;;;;;;;;;137580;1268;22389;-82
2023/12/11 12:00:24;;;;;;;;;;;;;;;;;;137551;1272;22339;-81
2023/12/11 12:03:26;;;;;;;;;;;;;;;;;;137582;1272;22359;-79
2023/12/11 12:06:29;;;;;;;;;;;;;;;;;;137562;1272;22825;-81
2023/12/11 12:09:32;;;;;;;;;;;;;;;;;;137579;1272;22750;-81
2023/12/11 12:12:34;;;;;;;;;;;;;;;;;;137537;1272;22347;-81
2023/12/11 12:15:37;;;;;;;;;;;;;;;;;;137572;1272;22393;-81
2023/12/11 12:18:39;;;;;;;;;;;;;;;;;;137579;1272;22353;-81
2023/12/11 12:21:42;;;;;;;;;;;;;;;;;;137571;1272;22337;-81
2023/12/11 12:24:48;;;;;;;;;;;;;;;;;;137606;1272;22436;-81
2023/12/11 12:27:51;;;;;;;;;;;;;;;;;;137576;1268;22340;-81
2023/12/11 12:30:53;;;;;;;;;;;;;;;;;;137593;1272;22291;-83
2023/12/11 12:33:56;;;;;;;;;;;;;;;;;;137557;1272;22430;-81
2023/12/11 12:36:58;;;;;;;;;;;;;;;;;;137536;1272;22594;-83
2023/12/11 12:40:01;;;;;;;;;;;;;;;;;;137493;1272;22575;-82
2023/12/11 12:43:04;;;;;;;;;;;;;;;;;;137509;1272;23062;-84
2023/12/11 12:46:07;;;;;;;;;;;;;;;;;;137653;1272;22391;-82
2023/12/11 12:49:10;;;;;;;;;;;;;;;;;;137568;1272;22467;-83
2023/12/11 12:52:13;;;;;;;;;;;;;;;;;;137595;1272;22437;-82
2023/12/11 12:55:16;;;;;;;;;;;;;;;;;;137587;1272;22298;-82
2023/12/11 12:58:19;;;;;;;;;;;;;;;;;;137656;1267;22355;-81
2023/12/11 13:01:21;;;;;;;;;;;;;;;;;;137649;1272;22378;-82
2023/12/11 13:04:24;;;;;;;;;;;;;;;;;;137596;1272;22426;-83
2023/12/11 13:07:28;;;;;;;;;;;;;;;;;;137606;1272;22511;-86
2023/12/11 13:10:30;;;;;;;;;;;;;;;;;;137352;1272;22480;-81
2023/12/11 13:13:33;;;;;;;;;;;;;;;;;;137589;1272;22270;-80
2023/12/11 13:16:35;;;;;;;;;;;;;;;;;;137525;1272;22918;-81
2023/12/11 13:19:38;;;;;;;;;;;;;;;;;;137536;1254;22816;-80
2023/12/11 13:22:40;;;;;;;;;;;;;;;;;;137515;1272;22428;-80
2023/12/11 13:25:43;;;;;;;;;;;;;;;;;;137376;1271;22425;-81
2023/12/11 13:28:45;;;;;;;;;;;;;;;;;;137450;1264;22321;-80
2023/12/11 13:31:49;;;;;;;;;;;;;;;;;;137434;1272;22307;-80
2023/12/11 13:34:51;;;;;;;;;;;;;;;;;;137461;1272;22449;-80
2023/12/11 13:37:54;;;;;;;;;;;;;;;;;;137459;1272;22422;-81
2023/12/11 13:40:56;;;;;;;;;;;;;;;;;;137445;1272;22375;-81
2023/12/11 13:43:59;;;;;;;;;;;;;;;;;;137471;1272;22349;-80
2023/12/11 13:47:02;;;;;;;;;;;;;;;;;;137472;1272;22329;-83
2023/12/11 13:50:08;;;;;;;;;;;;;;;;;;137503;1272;22498;-82
2023/12/11 13:53:11;;;;;;;;;;;;;;;;;;137515;1272;22873;-82
2023/12/11 13:56:13;;;;;;;;;;;;;;;;;;137313;1272;22508;-82
2023/12/11 13:59:16;;;;;;;;;;;;;;;;;;137506;1271;22964;-82
2023/12/11 14:02:18;;;;;;;;;;;;;;;;;;137025;1272;22890;-82
2023/12/11 14:05:24;;;;;;;;;;;;;;;;;;137360;1271;22593;-82
2023/12/11 14:08:26;;;;;;;;;;;;;;;;;;137308;1272;22502;-83
2023/12/11 14:11:29;;;;;;;;;;;;;;;;;;137460;1272;22356;-82
2023/12/11 14:14:39;;;;;;;;;;;;;;;;;;137399;1271;23133;-81
2023/12/11 14:17:44;;;;;;;;;;;;;;;;;;137516;1265;22826;-82
2023/12/11 14:20:47;;;;;;;;;;;;;;;;;;137466;1271;22477;-82
2023/12/11 14:23:49;;;;;;;;;;;;;;;;;;137547;1272;22591;-82
2023/12/11 14:26:52;;;;;;;;;;;;;;;;;;137466;1272;22366;-82
2023/12/11 14:29:55;;;;;;;;;;;;;;;;;;137569;1272;22349;-83
2023/12/11 14:32:58;;;;;;;;;;;;;;;;;;137588;1272;22368;-83
2023/12/11 14:36:00;;;;;;;;;;;;;;;;;;137578;1266;22402;-83
2023/12/11 14:39:04;;;;;;;;;;;;;;;;;;137609;1272;22365;-84
2023/12/11 14:42:07;;;;;;;;;;;;;;;;;;137562;1272;22806;-86
2023/12/11 14:45:09;;;;;;;;;;;;;;;;;;137495;1271;23098;-85
2023/12/11 14:48:12;;;;;;;;;;;;;;;;;;137600;1272;22329;-85
2023/12/11 14:51:15;;;;;;;;;;;;;;;;;;137251;1272;22573;-84
2023/12/11 14:54:17;;;;;;;;;;;;;;;;;;137575;1272;22301;-84
2023/12/11 14:57:20;;;;;;;;;;;;;;;;;;137529;1272;22397;-84
2023/12/11 15:00:22;;;;;;;;;;;;;;;;;;137552;1272;22283;-85
2023/12/11 15:03:25;;;;;;;;;;;;;;;;;;137586;1272;22317;-85
2023/12/11 15:06:28;;;;;;;;;;;;;;;;;;137465;1272;22459;-88
2023/12/11 15:09:32;;;;;;;;;;;;;;;;;;137617;1272;22817;-84
2023/12/11 15:12:35;;;;;;;;;;;;;;;;;;137395;1272;22517;-88
2023/12/11 15:15:38;;;;;;;;;;;;;;;;;;137451;1272;22502;-85
2023/12/11 15:18:40;;;;;;;;;;;;;;;;;;137333;1272;22579;-86
2023/12/11 15:21:43;;;;;;;;;;;;;;;;;;137060;1272;22591;-84
2023/12/11 15:24:46;;;;;;;;;;;;;;;;;;137578;1271;22429;-85
2023/12/11 15:27:49;;;;;;;;;;;;;;;;;;137637;1260;22276;-83
2023/12/11 15:30:51;;;;;;;;;;;;;;;;;;137645;1272;22442;-85
2023/12/11 15:33:54;;;;;;;;;;;;;;;;;;137648;1272;22450;-85
2023/12/11 15:36:59;;;;;;;;;;;;;;;;;;137684;1272;22349;-83
2023/12/11 15:40:06;;;;;;;;;;;;;;;;;;137610;1272;22875;-84
2023/12/11 15:43:11;;;;;;;;;;;;;;;;;;137558;1272;22656;-85
2023/12/11 15:46:15;;;;;;;;;;;;;;;;;;137617;1272;22531;-85
2023/12/11 15:49:18;;;;;;;;;;;;;;;;;;137592;1272;22623;-86
2023/12/11 15:52:20;;;;;;;;;;;;;;;;;;137615;1272;22788;-84
2023/12/11 15:55:23;;;;;;;;;;;;;;;;;;137359;1272;22501;-86
2023/12/11 15:58:25;;;;;;;;;;;;;;;;;;137542;1272;22517;-83
2023/12/11 16:01:28;;;;;;;;;;;;;;;;;;137546;1265;22602;-85
2023/12/11 16:04:31;;;;;;;;;;;;;;;;;;137459;1272;22542;-84
2023/12/11 16:07:33;;;;;;;;;;;;;;;;;;137655;1268;22429;-84
2023/12/11 16:10:36;;;;;;;;;;;;;;;;;;137590;1272;22523;-86
2023/12/11 16:13:39;;;;;;;;;;;;;;;;;;137576;1272;22571;-86
2023/12/11 16:16:41;;;;;;;;;;;;;;;;;;137507;1272;22964;-84
2023/12/11 16:19:49;;;;;;;;;;;;;;;;;;137639;1272;22810;-85
2023/12/11 16:22:52;;;;;;;;;;;;;;;;;;137623;1272;22517;-84
2023/12/11 16:25:54;;;;;;;;;;;;;;;;;;137576;1272;22499;-84
2023/12/11 16:28:58;;;;;;;;;;;;;;;;;;137662;1272;22342;-83
2023/12/11 16:32:01;;;;;;;;;;;;;;;;;;137611;1272;22509;-81
2023/12/11 16:35:05;;;;;;;;;;;;;;;;;;137595;1272;22585;-84
2023/12/11 16:38:07;;;;;;;;;;;;;;;;;;137603;1272;22511;-84
2023/12/11 16:41:10;;;;;;;;;;;;;;;;;;137570;1272;22544;-84
2023/12/11 16:44:12;;;;;;;;;;;;;;;;;;137438;1272;22532;-81
2023/12/11 16:47:15;;;;;;;;;;;;;;;;;;137514;1272;22512;-82
2023/12/11 16:50:18;;;;;;;;;;;;;;;;;;137548;1272;22616;-83
2023/12/11 16:53:20;;;;;;;;;;;;;;;;;;137634;1272;23060;-83
2023/12/11 16:56:23;;;;;;;;;;;;;;;;;;137533;1272;22496;-83
2023/12/11 16:59:25;;;;;;;;;;;;;;;;;;137467;1272;22518;-81
2023/12/11 17:02:28;;;;;;;;;;;;;;;;;;137630;1272;22320;-81
2023/12/11 17:05:30;;;;;;;;;;;;;;;;;;137579;1272;22439;-81
2023/12/11 17:08:33;;;;;;;;;;;;;;;;;;137590;1272;22350;-82
2023/12/11 17:11:35;;;;;;;;;;;;;;;;;;137581;1272;22268;-81
2023/12/11 17:14:38;;;;;;;;;;;;;;;;;;137611;1271;22290;-82
2023/12/11 17:17:40;;;;;;;;;;;;;;;;;;137589;1265;22345;-80
2023/12/11 17:20:43;;;;;;;;;;;;;;;;;;137527;1272;22573;-82
2023/12/11 17:23:45;;;;;;;;;;;;;;;;;;137580;1265;22442;-81
2023/12/11 17:26:48;;;;;;;;;;;;;;;;;;137558;1272;22580;-80
2023/12/11 17:29:51;;;;;;;;;;;;;;;;;;137562;1272;22506;-81
2023/12/11 17:32:56;;;;;;;;;;;;;;;;;;137618;1272;22431;-81
2023/12/11 17:35:58;;;;;;;;;;;;;;;;;;137588;1272;22459;-77
2023/12/11 17:39:01;;;;;;;;;;;;;;;;;;137419;1272;22505;-79
2023/12/11 17:42:04;;;;;;;;;;;;;;;;;;137607;1272;22887;-80
2023/12/11 17:45:06;;;;;;;;;;;;;;;;;;137529;1272;23075;-81
2023/12/11 17:48:09;;;;;;;;;;;;;;;;;;137606;1272;22436;-80
2023/12/11 17:51:11;;;;;;;;;;;;;;;;;;137573;1272;22338;-80
2023/12/11 17:54:14;;;;;;;;;;;;;;;;;;137566;1272;22333;-82
2023/12/11 17:57:16;;;;;;;;;;;;;;;;;;137562;1272;22316;-79
2023/12/11 18:00:20;;;;;;;;;;;;;;;;;;137590;1272;22391;-82
2023/12/11 18:03:23;;;;;;;;;;;;;;;;;;137527;1272;23654;-81
2023/12/11 18:06:26;;;;;;;;;;;;;;;;;;137442;1272;22502;-78
2023/12/11 18:09:28;;;;;;;;;;;;;;;;;;137630;1272;22831;-79
2023/12/11 18:12:31;;;;;;;;;;;;;;;;;;137657;1272;22331;-78
2023/12/11 18:15:34;;;;;;;;;;;;;;;;;;137673;1272;22335;-79
2023/12/11 18:18:36;;;;;;;;;;;;;;;;;;137623;1272;22518;-79
2023/12/11 18:21:39;;;;;;;;;;;;;;;;;;137596;1272;22308;-79
2023/12/11 18:24:41;;;;;;;;;;;;;;;;;;137614;1272;22438;-80
2023/12/11 18:27:44;;;;;;;;;;;;;;;;;;137566;1272;22487;-81
2023/12/11 18:30:46;;;;;;;;;;;;;;;;;;137490;1272;25200;-81
2023/12/11 18:33:49;;;;;;;;;;;;;;;;;;137499;1272;22592;-81
2023/12/11 18:36:53;;;;;;;;;;;;;;;;;;137455;1272;23302;-81
2023/12/11 18:39:55;;;;;;;;;;;;;;;;;;137428;1268;22600;-81
2023/12/11 18:42:58;;;;;;;;;;;;;;;;;;137489;1272;22536;-79
2023/12/11 18:46:00;;;;;;;;;;;;;;;;;;137540;1268;22551;-78
2023/12/11 18:49:03;;;;;;;;;;;;;;;;;;137641;1272;22353;-78
2023/12/11 18:52:08;;;;;;;;;;;;;;;;;;137577;1272;22355;-80
2023/12/11 18:55:13;;;;;;;;;;;;;;;;;;137489;1272;22491;-82
2023/12/11 18:58:16;;;;;;;;;;;;;;;;;;137657;1272;22413;-82
2023/12/11 19:01:18;;;;;;;;;;;;;;;;;;137504;1272;22933;-82
2023/12/11 19:04:21;;;;;;;;;;;;;;;;;;137616;1272;22504;-82
2023/12/11 19:07:23;;;;;;;;;;;;;;;;;;137548;1272;22489;-83
2023/12/11 19:10:26;;;;;;;;;;;;;;;;;;137590;1272;22312;-81
2023/12/11 19:13:29;;;;;;;;;;;;;;;;;;137592;1272;22393;-81
2023/12/11 19:16:31;;;;;;;;;;;;;;;;;;137624;1272;22748;-84
2023/12/11 19:19:34;;;;;;;;;;;;;;;;;;137568;1262;22538;-85
2023/12/11 19:22:36;;;;;;;;;;;;;;;;;;137640;1272;22282;-84
2023/12/11 19:25:39;;;;;;;;;;;;;;;;;;137557;1272;26031;-84
2023/12/11 19:28:41;;;;;;;;;;;;;;;;;;137661;1272;22402;-84
2023/12/11 19:31:44;;;;;;;;;;;;;;;;;;137642;1272;22358;-83
2023/12/11 19:34:46;;;;;;;;;;;;;;;;;;137622;1272;22450;-86
2023/12/11 19:37:49;;;;;;;;;;;;;;;;;;137573;1272;22589;-83
2023/12/11 19:40:51;;;;;;;;;;;;;;;;;;137613;1272;22326;-84
2023/12/11 19:43:54;;;;;;;;;;;;;;;;;;137513;1272;22552;-86
2023/12/11 19:46:57;;;;;;;;;;;;;;;;;;137383;1272;22644;-85
2023/12/11 19:49:59;;;;;;;;;;;;;;;;;;137583;1266;22588;-86
2023/12/11 19:53:02;;;;;;;;;;;;;;;;;;137591;1272;22613;-85
2023/12/11 19:56:04;;;;;;;;;;;;;;;;;;137610;1272;22496;-85
2023/12/11 19:59:07;;;;;;;;;;;;;;;;;;137519;1272;22507;-85
2023/12/11 20:02:10;;;;;;;;;;;;;;;;;;137555;1272;22253;-85
2023/12/11 20:05:12;;;;;;;;;;;;;;;;;;137573;1268;23176;-84
2023/12/11 20:08:15;;;;;;;;;;;;;;;;;;137523;1272;22476;-84
2023/12/11 20:11:20;;;;;;;;;;;;;;;;;;137509;1272;22555;-86
2023/12/11 20:14:23;;;;;;;;;;;;;;;;;;137280;1272;23308;-85
2023/12/11 20:17:25;;;;;;;;;;;;;;;;;;137521;1272;22505;-82
2023/12/11 20:20:28;;;;;;;;;;;;;;;;;;137515;1272;22546;-83
2023/12/11 20:23:31;;;;;;;;;;;;;;;;;;137471;1266;22515;-86
2023/12/11 20:26:33;;;;;;;;;;;;;;;;;;137530;1262;22513;-86
2023/12/11 20:29:36;;;;;;;;;;;;;;;;;;137445;1272;22562;-85
2023/12/11 20:32:39;;;;;;;;;;;;;;;;;;137565;1272;22525;-86